sensor_id;sensor_type;location;lat;lon;timestamp;pressure;altitude;pressure_sealevel;temperature;humidity
59951;BME280;45812;53.540;9.774;2023-02-15T00:01:25;103022.31;;;4.23;100.00
59951;BME280;45812;53.540;9.774;2023-02-15T00:03:50;103028.38;;;4.25;100.00
59951;BME280;45812;53.540;9.774;2023-02-15T00:06:16;103017.75;;;4.27;100.00
59951;BME280;45812;53.540;9.774;2023-02-15T00:08:42;103018.59;;;4.28;100.00
59951;BME280;45812;53.540;9.774;2023-02-15T00:11:14;103022.13;;;4.28;100.00
59951;BME280;45812;53.540;9.774;2023-02-15T00:13:40;103022.06;;;4.30;100.00
59951;BME280;45812;53.540;9.774;2023-02-15T00:16:11;103011.31;;;4.34;100.00
59951;BME280;45812;53.540;9.774;2023-02-15T00:18:37;103017.97;;;4.22;100.00
59951;BME280;45812;53.540;9.774;2023-02-15T00:21:08;103008.28;;;4.23;100.00
59951;BME280;45812;53.540;9.774;2023-02-15T00:23:33;103015.03;;;4.10;100.00
59951;BME280;45812;53.540;9.774;2023-02-15T00:26:10;103005.41;;;4.28;100.00
59951;BME280;45812;53.540;9.774;2023-02-15T00:28:36;103007.47;;;4.21;100.00
59951;BME280;45812;53.540;9.774;2023-02-15T00:31:09;103005.50;;;4.65;100.00
59951;BME280;45812;53.540;9.774;2023-02-15T00:33:35;103000.44;;;4.21;100.00
59951;BME280;45812;53.540;9.774;2023-02-15T00:36:04;102991.47;;;4.25;100.00
59951;BME280;45812;53.540;9.774;2023-02-15T00:38:31;102994.84;;;4.29;100.00
59951;BME280;45812;53.540;9.774;2023-02-15T00:40:58;102993.78;;;4.33;100.00
59951;BME280;45812;53.540;9.774;2023-02-15T00:43:24;102996.25;;;4.36;100.00
59951;BME280;45812;53.540;9.774;2023-02-15T00:45:50;102997.34;;;4.32;100.00
59951;BME280;45812;53.540;9.774;2023-02-15T00:48:16;102991.81;;;4.18;100.00
59951;BME280;45812;53.540;9.774;2023-02-15T00:50:41;102979.63;;;4.15;100.00
59951;BME280;45812;53.540;9.774;2023-02-15T00:53:06;102986.47;;;4.19;100.00
59951;BME280;45812;53.540;9.774;2023-02-15T00:55:32;102990.81;;;4.20;100.00
59951;BME280;45812;53.540;9.774;2023-02-15T00:57:57;102982.06;;;4.20;100.00
59951;BME280;45812;53.540;9.774;2023-02-15T01:00:22;102981.31;;;4.37;100.00
59951;BME280;45812;53.540;9.774;2023-02-15T01:02:47;102982.44;;;4.31;100.00
59951;BME280;45812;53.540;9.774;2023-02-15T01:05:13;102979.94;;;4.28;100.00
59951;BME280;45812;53.540;9.774;2023-02-15T01:07:38;102986.72;;;4.34;100.00
59951;BME280;45812;53.540;9.774;2023-02-15T01:10:05;102983.22;;;4.33;100.00
59951;BME280;45812;53.540;9.774;2023-02-15T01:12:31;102992.84;;;4.34;100.00
59951;BME280;45812;53.540;9.774;2023-02-15T01:14:56;102984.72;;;4.39;100.00
59951;BME280;45812;53.540;9.774;2023-02-15T01:17:21;102983.00;;;4.38;100.00
59951;BME280;45812;53.540;9.774;2023-02-15T01:19:47;102986.44;;;4.40;100.00
59951;BME280;45812;53.540;9.774;2023-02-15T01:22:12;102976.53;;;4.45;100.00
59951;BME280;45812;53.540;9.774;2023-02-15T01:24:37;102977.38;;;4.45;100.00
59951;BME280;45812;53.540;9.774;2023-02-15T01:27:02;102968.50;;;4.48;100.00
59951;BME280;45812;53.540;9.774;2023-02-15T01:29:28;102971.13;;;4.48;100.00
59951;BME280;45812;53.540;9.774;2023-02-15T01:31:53;102974.69;;;4.47;100.00
59951;BME280;45812;53.540;9.774;2023-02-15T01:34:18;102964.16;;;4.47;100.00
59951;BME280;45812;53.540;9.774;2023-02-15T01:36:43;102962.38;;;4.47;100.00
59951;BME280;45812;53.540;9.774;2023-02-15T01:39:09;102955.25;;;4.49;100.00
59951;BME280;45812;53.540;9.774;2023-02-15T01:41:35;102951.81;;;4.85;100.00
59951;BME280;45812;53.540;9.774;2023-02-15T01:44:02;102956.34;;;4.63;100.00
59951;BME280;45812;53.540;9.774;2023-02-15T01:46:35;102953.94;;;4.58;100.00
59951;BME280;45812;53.540;9.774;2023-02-15T01:49:10;102952.53;;;4.51;100.00
59951;BME280;45812;53.540;9.774;2023-02-15T01:51:37;102943.06;;;4.47;100.00
59951;BME280;45812;53.540;9.774;2023-02-15T01:54:11;102938.34;;;4.53;100.00
59951;BME280;45812;53.540;9.774;2023-02-15T01:56:39;102932.28;;;4.51;100.00
59951;BME280;45812;53.540;9.774;2023-02-15T01:59:09;102936.41;;;4.57;100.00
59951;BME280;45812;53.540;9.774;2023-02-15T02:01:37;102926.72;;;4.57;100.00
59951;BME280;45812;53.540;9.774;2023-02-15T02:04:15;102922.44;;;4.55;100.00
59951;BME280;45812;53.540;9.774;2023-02-15T02:06:44;102925.22;;;4.52;100.00
59951;BME280;45812;53.540;9.774;2023-02-15T02:09:11;102913.53;;;4.39;100.00
59951;BME280;45812;53.540;9.774;2023-02-15T02:11:38;102905.53;;;4.40;100.00
59951;BME280;45812;53.540;9.774;2023-02-15T02:14:04;102909.75;;;4.44;100.00
59951;BME280;45812;53.540;9.774;2023-02-15T02:19:09;102908.81;;;4.45;100.00
59951;BME280;45812;53.540;9.774;2023-02-15T02:24:42;102891.34;;;4.43;100.00
59951;BME280;45812;53.540;9.774;2023-02-15T02:27:22;102898.84;;;4.52;100.00
59951;BME280;45812;53.540;9.774;2023-02-15T02:35:26;102889.22;;;4.51;100.00
59951;BME280;45812;53.540;9.774;2023-02-15T02:38:05;102885.66;;;4.52;100.00
59951;BME280;45812;53.540;9.774;2023-02-15T02:43:30;102878.31;;;4.40;100.00
59951;BME280;45812;53.540;9.774;2023-02-15T02:46:03;102879.69;;;4.48;100.00
59951;BME280;45812;53.540;9.774;2023-02-15T02:48:32;102881.88;;;4.39;100.00
59951;BME280;45812;53.540;9.774;2023-02-15T02:50:58;102883.13;;;4.32;100.00
59951;BME280;45812;53.540;9.774;2023-02-15T02:53:23;102880.25;;;4.36;100.00
59951;BME280;45812;53.540;9.774;2023-02-15T02:55:55;102876.53;;;4.40;100.00
59951;BME280;45812;53.540;9.774;2023-02-15T02:58:29;102867.44;;;4.29;100.00
59951;BME280;45812;53.540;9.774;2023-02-15T03:01:03;102873.34;;;4.34;100.00
59951;BME280;45812;53.540;9.774;2023-02-15T03:03:44;102871.50;;;4.36;100.00
59951;BME280;45812;53.540;9.774;2023-02-15T03:06:18;102870.25;;;4.43;100.00
59951;BME280;45812;53.540;9.774;2023-02-15T03:08:51;102876.63;;;4.39;100.00
59951;BME280;45812;53.540;9.774;2023-02-15T03:11:18;102883.66;;;4.38;100.00
59951;BME280;45812;53.540;9.774;2023-02-15T03:13:44;102876.38;;;4.43;100.00
59951;BME280;45812;53.540;9.774;2023-02-15T03:16:13;102876.28;;;4.46;100.00
59951;BME280;45812;53.540;9.774;2023-02-15T03:18:58;102872.06;;;4.42;100.00
59951;BME280;45812;53.540;9.774;2023-02-15T03:21:45;102864.50;;;4.35;100.00
59951;BME280;45812;53.540;9.774;2023-02-15T03:24:24;102862.88;;;4.32;100.00
59951;BME280;45812;53.540;9.774;2023-02-15T03:26:53;102862.81;;;4.34;100.00
59951;BME280;45812;53.540;9.774;2023-02-15T03:29:22;102859.78;;;4.22;100.00
59951;BME280;45812;53.540;9.774;2023-02-15T03:31:54;102862.16;;;4.29;100.00
59951;BME280;45812;53.540;9.774;2023-02-15T03:34:21;102862.44;;;4.22;100.00
59951;BME280;45812;53.540;9.774;2023-02-15T03:36:55;102853.34;;;4.30;100.00
59951;BME280;45812;53.540;9.774;2023-02-15T03:39:39;102854.81;;;4.35;100.00
59951;BME280;45812;53.540;9.774;2023-02-15T03:42:09;102849.78;;;4.31;100.00
59951;BME280;45812;53.540;9.774;2023-02-15T03:44:48;102838.78;;;4.40;100.00
59951;BME280;45812;53.540;9.774;2023-02-15T03:47:19;102838.63;;;4.43;100.00
59951;BME280;45812;53.540;9.774;2023-02-15T03:49:52;102834.44;;;4.39;100.00
59951;BME280;45812;53.540;9.774;2023-02-15T03:52:20;102827.69;;;4.33;100.00
59951;BME280;45812;53.540;9.774;2023-02-15T03:54:46;102830.31;;;4.33;100.00
59951;BME280;45812;53.540;9.774;2023-02-15T03:57:30;102831.25;;;4.32;100.00
59951;BME280;45812;53.540;9.774;2023-02-15T04:00:18;102819.13;;;4.28;100.00
59951;BME280;45812;53.540;9.774;2023-02-15T04:05:30;102826.97;;;4.30;100.00
59951;BME280;45812;53.540;9.774;2023-02-15T04:07:55;102820.84;;;4.29;100.00
59951;BME280;45812;53.540;9.774;2023-02-15T04:10:21;102823.69;;;4.24;100.00
59951;BME280;45812;53.540;9.774;2023-02-15T04:13:05;102818.25;;;4.28;100.00
59951;BME280;45812;53.540;9.774;2023-02-15T04:15:30;102820.25;;;4.22;100.00
59951;BME280;45812;53.540;9.774;2023-02-15T04:18:14;102823.34;;;4.13;100.00
59951;BME280;45812;53.540;9.774;2023-02-15T04:20:43;102815.28;;;3.98;100.00
59951;BME280;45812;53.540;9.774;2023-02-15T04:23:27;102812.28;;;3.86;100.00
59951;BME280;45812;53.540;9.774;2023-02-15T04:26:11;102823.81;;;3.84;100.00
59951;BME280;45812;53.540;9.774;2023-02-15T04:28:37;102819.09;;;3.72;100.00
59951;BME280;45812;53.540;9.774;2023-02-15T04:31:02;102821.16;;;3.65;100.00
59951;BME280;45812;53.540;9.774;2023-02-15T04:33:28;102819.50;;;3.62;100.00
59951;BME280;45812;53.540;9.774;2023-02-15T04:35:53;102818.44;;;3.67;100.00
59951;BME280;45812;53.540;9.774;2023-02-15T04:38:18;102821.78;;;3.70;100.00
59951;BME280;45812;53.540;9.774;2023-02-15T04:40:44;102827.28;;;3.65;100.00
59951;BME280;45812;53.540;9.774;2023-02-15T04:43:09;102827.28;;;3.65;100.00
59951;BME280;45812;53.540;9.774;2023-02-15T04:45:34;102833.59;;;3.61;100.00
59951;BME280;45812;53.540;9.774;2023-02-15T04:47:59;102820.66;;;3.57;100.00
59951;BME280;45812;53.540;9.774;2023-02-15T04:50:25;102820.06;;;3.30;100.00
59951;BME280;45812;53.540;9.774;2023-02-15T04:52:50;102808.88;;;3.04;100.00
59951;BME280;45812;53.540;9.774;2023-02-15T04:55:15;102809.59;;;3.08;100.00
59951;BME280;45812;53.540;9.774;2023-02-15T04:57:40;102806.25;;;3.04;100.00
59951;BME280;45812;53.540;9.774;2023-02-15T05:00:06;102800.41;;;2.98;100.00
59951;BME280;45812;53.540;9.774;2023-02-15T05:02:33;102803.34;;;2.90;100.00
59951;BME280;45812;53.540;9.774;2023-02-15T05:04:58;102804.81;;;2.76;100.00
59951;BME280;45812;53.540;9.774;2023-02-15T05:07:23;102807.47;;;2.76;100.00
59951;BME280;45812;53.540;9.774;2023-02-15T05:09:49;102802.88;;;2.81;100.00
59951;BME280;45812;53.540;9.774;2023-02-15T05:12:14;102803.56;;;2.64;100.00
59951;BME280;45812;53.540;9.774;2023-02-15T05:14:39;102803.94;;;2.55;100.00
59951;BME280;45812;53.540;9.774;2023-02-15T05:17:05;102797.22;;;2.48;100.00
59951;BME280;45812;53.540;9.774;2023-02-15T05:19:30;102793.09;;;2.40;100.00
59951;BME280;45812;53.540;9.774;2023-02-15T05:21:55;102790.13;;;2.28;100.00
59951;BME280;45812;53.540;9.774;2023-02-15T05:24:21;102792.03;;;2.24;100.00
59951;BME280;45812;53.540;9.774;2023-02-15T05:27:05;102783.44;;;2.19;100.00
59951;BME280;45812;53.540;9.774;2023-02-15T05:29:49;102777.19;;;2.00;100.00
59951;BME280;45812;53.540;9.774;2023-02-15T05:32:15;102779.56;;;2.07;100.00
59951;BME280;45812;53.540;9.774;2023-02-15T05:34:40;102773.19;;;2.13;100.00
59951;BME280;45812;53.540;9.774;2023-02-15T05:37:05;102771.34;;;2.15;100.00
59951;BME280;45812;53.540;9.774;2023-02-15T05:39:32;102765.91;;;2.20;100.00
59951;BME280;45812;53.540;9.774;2023-02-15T05:42:00;102767.56;;;2.22;100.00
59951;BME280;45812;53.540;9.774;2023-02-15T05:44:25;102765.25;;;2.15;100.00
59951;BME280;45812;53.540;9.774;2023-02-15T05:46:51;102763.16;;;2.23;100.00
59951;BME280;45812;53.540;9.774;2023-02-15T05:49:16;102758.81;;;2.00;100.00
59951;BME280;45812;53.540;9.774;2023-02-15T05:51:41;102757.47;;;1.90;100.00
59951;BME280;45812;53.540;9.774;2023-02-15T05:54:06;102753.75;;;1.95;100.00
59951;BME280;45812;53.540;9.774;2023-02-15T05:56:32;102756.75;;;2.08;100.00
59951;BME280;45812;53.540;9.774;2023-02-15T05:58:57;102762.72;;;1.90;100.00
59951;BME280;45812;53.540;9.774;2023-02-15T06:01:22;102768.66;;;1.95;100.00
59951;BME280;45812;53.540;9.774;2023-02-15T06:03:48;102767.34;;;2.06;100.00
59951;BME280;45812;53.540;9.774;2023-02-15T06:06:14;102767.81;;;2.16;100.00
59951;BME280;45812;53.540;9.774;2023-02-15T06:08:40;102777.72;;;2.31;100.00
59951;BME280;45812;53.540;9.774;2023-02-15T06:11:06;102776.69;;;2.35;100.00
59951;BME280;45812;53.540;9.774;2023-02-15T06:13:32;102774.03;;;2.35;100.00
59951;BME280;45812;53.540;9.774;2023-02-15T06:15:58;102778.38;;;2.36;100.00
59951;BME280;45812;53.540;9.774;2023-02-15T06:18:23;102781.41;;;2.27;100.00
59951;BME280;45812;53.540;9.774;2023-02-15T06:20:49;102780.59;;;2.25;100.00
59951;BME280;45812;53.540;9.774;2023-02-15T06:23:15;102772.09;;;2.19;100.00
59951;BME280;45812;53.540;9.774;2023-02-15T06:25:40;102778.69;;;2.07;100.00
59951;BME280;45812;53.540;9.774;2023-02-15T06:28:05;102776.34;;;1.99;100.00
59951;BME280;45812;53.540;9.774;2023-02-15T06:30:31;102766.47;;;1.82;100.00
59951;BME280;45812;53.540;9.774;2023-02-15T06:32:56;102771.41;;;1.68;100.00
59951;BME280;45812;53.540;9.774;2023-02-15T06:35:21;102769.75;;;1.66;100.00
59951;BME280;45812;53.540;9.774;2023-02-15T06:37:47;102769.53;;;1.72;100.00
59951;BME280;45812;53.540;9.774;2023-02-15T06:40:12;102762.28;;;1.78;100.00
59951;BME280;45812;53.540;9.774;2023-02-15T06:42:37;102763.41;;;1.95;100.00
59951;BME280;45812;53.540;9.774;2023-02-15T06:45:04;102765.09;;;1.96;100.00
59951;BME280;45812;53.540;9.774;2023-02-15T06:47:29;102765.09;;;1.96;100.00
59951;BME280;45812;53.540;9.774;2023-02-15T06:49:54;102776.63;;;2.15;100.00
59951;BME280;45812;53.540;9.774;2023-02-15T06:52:19;102776.81;;;2.10;100.00
59951;BME280;45812;53.540;9.774;2023-02-15T06:54:45;102782.53;;;2.20;100.00
59951;BME280;45812;53.540;9.774;2023-02-15T06:57:10;102776.56;;;2.17;100.00
59951;BME280;45812;53.540;9.774;2023-02-15T06:59:35;102770.25;;;2.21;100.00
59951;BME280;45812;53.540;9.774;2023-02-15T07:02:01;102772.72;;;2.25;100.00
59951;BME280;45812;53.540;9.774;2023-02-15T07:04:26;102768.78;;;2.35;100.00
59951;BME280;45812;53.540;9.774;2023-02-15T07:06:53;102770.88;;;2.49;100.00
59951;BME280;45812;53.540;9.774;2023-02-15T07:09:18;102763.97;;;2.47;100.00
59951;BME280;45812;53.540;9.774;2023-02-15T07:11:44;102760.94;;;2.56;100.00
59951;BME280;45812;53.540;9.774;2023-02-15T07:14:28;102761.03;;;2.74;100.00
59951;BME280;45812;53.540;9.774;2023-02-15T07:16:53;102766.63;;;2.67;100.00
59951;BME280;45812;53.540;9.774;2023-02-15T07:19:18;102761.25;;;2.70;100.00
59951;BME280;45812;53.540;9.774;2023-02-15T07:21:43;102763.34;;;2.62;100.00
59951;BME280;45812;53.540;9.774;2023-02-15T07:24:10;102760.53;;;2.66;100.00
59951;BME280;45812;53.540;9.774;2023-02-15T07:26:35;102761.53;;;2.84;100.00
59951;BME280;45812;53.540;9.774;2023-02-15T07:29:00;102766.53;;;2.90;100.00
59951;BME280;45812;53.540;9.774;2023-02-15T07:31:26;102760.75;;;2.82;100.00
59951;BME280;45812;53.540;9.774;2023-02-15T07:33:51;102757.00;;;2.88;100.00
59951;BME280;45812;53.540;9.774;2023-02-15T07:36:16;102744.56;;;2.91;100.00
59951;BME280;45812;53.540;9.774;2023-02-15T07:38:41;102749.03;;;2.69;100.00
59951;BME280;45812;53.540;9.774;2023-02-15T07:41:12;102737.84;;;2.84;100.00
59951;BME280;45812;53.540;9.774;2023-02-15T07:43:41;102741.41;;;3.03;100.00
59951;BME280;45812;53.540;9.774;2023-02-15T07:46:09;102736.72;;;3.10;100.00
59951;BME280;45812;53.540;9.774;2023-02-15T07:48:36;102741.78;;;2.94;100.00
59951;BME280;45812;53.540;9.774;2023-02-15T07:51:04;102735.09;;;2.87;100.00
59951;BME280;45812;53.540;9.774;2023-02-15T07:53:30;102738.91;;;3.00;100.00
59951;BME280;45812;53.540;9.774;2023-02-15T07:55:59;102733.50;;;3.24;100.00
59951;BME280;45812;53.540;9.774;2023-02-15T07:58:25;102730.25;;;3.38;100.00
59951;BME280;45812;53.540;9.774;2023-02-15T08:01:10;102722.06;;;3.44;100.00
59951;BME280;45812;53.540;9.774;2023-02-15T08:03:36;102721.28;;;3.42;100.00
59951;BME280;45812;53.540;9.774;2023-02-15T08:06:01;102722.69;;;3.30;100.00
59951;BME280;45812;53.540;9.774;2023-02-15T08:08:27;102724.91;;;3.39;100.00
59951;BME280;45812;53.540;9.774;2023-02-15T08:13:48;102708.28;;;3.39;100.00
59951;BME280;45812;53.540;9.774;2023-02-15T08:16:25;102698.44;;;3.23;100.00
59951;BME280;45812;53.540;9.774;2023-02-15T08:18:52;102696.50;;;3.27;100.00
59951;BME280;45812;53.540;9.774;2023-02-15T08:21:18;102698.50;;;3.22;100.00
59951;BME280;45812;53.540;9.774;2023-02-15T08:23:43;102705.84;;;3.14;100.00
59951;BME280;45812;53.540;9.774;2023-02-15T08:26:08;102706.78;;;3.13;100.00
59951;BME280;45812;53.540;9.774;2023-02-15T08:28:33;102702.19;;;3.18;100.00
59951;BME280;45812;53.540;9.774;2023-02-15T08:31:10;102701.56;;;3.31;100.00
59951;BME280;45812;53.540;9.774;2023-02-15T08:33:37;102703.56;;;3.45;100.00
59951;BME280;45812;53.540;9.774;2023-02-15T08:36:08;102704.09;;;3.72;100.00
59951;BME280;45812;53.540;9.774;2023-02-15T08:38:34;102705.63;;;3.95;100.00
59951;BME280;45812;53.540;9.774;2023-02-15T08:41:23;102705.81;;;4.26;100.00
59951;BME280;45812;53.540;9.774;2023-02-15T08:43:52;102704.63;;;4.34;100.00
59951;BME280;45812;53.540;9.774;2023-02-15T08:46:18;102708.97;;;4.35;100.00
59951;BME280;45812;53.540;9.774;2023-02-15T08:48:44;102711.78;;;4.49;100.00
59951;BME280;45812;53.540;9.774;2023-02-15T08:51:15;102707.28;;;4.51;100.00
59951;BME280;45812;53.540;9.774;2023-02-15T08:53:44;102707.56;;;4.79;100.00
59951;BME280;45812;53.540;9.774;2023-02-15T08:56:10;102699.44;;;5.17;100.00
59951;BME280;45812;53.540;9.774;2023-02-15T08:58:36;102702.41;;;5.44;100.00
59951;BME280;45812;53.540;9.774;2023-02-15T09:01:09;102690.72;;;5.48;100.00
59951;BME280;45812;53.540;9.774;2023-02-15T09:03:34;102696.03;;;5.64;100.00
59951;BME280;45812;53.540;9.774;2023-02-15T09:06:00;102690.50;;;5.68;98.01
59951;BME280;45812;53.540;9.774;2023-02-15T09:08:26;102700.22;;;5.84;97.85
59951;BME280;45812;53.540;9.774;2023-02-15T09:10:52;102700.03;;;5.87;97.37
59951;BME280;45812;53.540;9.774;2023-02-15T09:13:17;102699.38;;;6.15;97.14
59951;BME280;45812;53.540;9.774;2023-02-15T09:15:43;102688.38;;;6.06;95.88
59951;BME280;45812;53.540;9.774;2023-02-15T09:18:08;102688.44;;;5.89;96.49
59951;BME280;45812;53.540;9.774;2023-02-15T09:20:36;102690.00;;;5.93;97.31
59951;BME280;45812;53.540;9.774;2023-02-15T09:23:02;102692.03;;;6.20;96.40
59951;BME280;45812;53.540;9.774;2023-02-15T09:25:27;102699.97;;;6.20;96.74
59951;BME280;45812;53.540;9.774;2023-02-15T09:27:52;102691.56;;;6.27;95.67
59951;BME280;45812;53.540;9.774;2023-02-15T09:30:18;102687.34;;;6.55;94.57
59951;BME280;45812;53.540;9.774;2023-02-15T09:32:43;102693.53;;;6.70;93.02
59951;BME280;45812;53.540;9.774;2023-02-15T09:35:09;102683.00;;;6.68;91.17
59951;BME280;45812;53.540;9.774;2023-02-15T09:37:34;102687.91;;;6.30;91.50
59951;BME280;45812;53.540;9.774;2023-02-15T09:39:59;102683.09;;;5.91;94.98
59951;BME280;45812;53.540;9.774;2023-02-15T09:45:28;102676.28;;;6.02;94.24
59951;BME280;45812;53.540;9.774;2023-02-15T09:48:06;102678.66;;;6.53;92.66
59951;BME280;45812;53.540;9.774;2023-02-15T09:54:00;102682.19;;;6.37;94.50
59951;BME280;45812;53.540;9.774;2023-02-15T09:56:33;102680.59;;;6.49;93.06
59951;BME280;45812;53.540;9.774;2023-02-15T09:59:11;102677.03;;;6.20;93.24
59951;BME280;45812;53.540;9.774;2023-02-15T10:02:01;102682.56;;;6.46;93.57
59951;BME280;45812;53.540;9.774;2023-02-15T10:04:49;102682.16;;;6.67;92.13
59951;BME280;45812;53.540;9.774;2023-02-15T10:10:17;102686.44;;;6.70;93.13
59951;BME280;45812;53.540;9.774;2023-02-15T10:15:24;102685.69;;;7.53;91.02
59951;BME280;45812;53.540;9.774;2023-02-15T10:20:42;102682.09;;;7.40;87.66
59951;BME280;45812;53.540;9.774;2023-02-15T10:26:11;102686.66;;;7.94;84.12
59951;BME280;45812;53.540;9.774;2023-02-15T10:31:23;102687.28;;;7.70;83.93
59951;BME280;45812;53.540;9.774;2023-02-15T10:34:00;102689.06;;;8.11;83.45
59951;BME280;45812;53.540;9.774;2023-02-15T10:37:05;102683.22;;;8.06;80.76
59951;BME280;45812;53.540;9.774;2023-02-15T10:42:54;102674.16;;;9.00;78.48
59951;BME280;45812;53.540;9.774;2023-02-15T10:51:00;102673.91;;;9.29;75.13
59951;BME280;45812;53.540;9.774;2023-02-15T10:53:39;102667.63;;;9.55;74.54
59951;BME280;45812;53.540;9.774;2023-02-15T10:56:21;102660.44;;;9.19;75.54
59951;BME280;45812;53.540;9.774;2023-02-15T10:59:21;102659.50;;;8.82;76.61
59951;BME280;45812;53.540;9.774;2023-02-15T11:07:26;102654.84;;;8.86;74.81
59951;BME280;45812;53.540;9.774;2023-02-15T11:09:59;102654.59;;;8.38;77.85
59951;BME280;45812;53.540;9.774;2023-02-15T11:12:27;102652.19;;;8.98;77.50
59951;BME280;45812;53.540;9.774;2023-02-15T11:15:01;102648.22;;;10.95;70.23
59951;BME280;45812;53.540;9.774;2023-02-15T11:17:35;102657.41;;;10.91;65.75
59951;BME280;45812;53.540;9.774;2023-02-15T11:20:15;102657.28;;;10.92;64.94
59951;BME280;45812;53.540;9.774;2023-02-15T11:22:41;102646.31;;;10.16;66.48
59951;BME280;45812;53.540;9.774;2023-02-15T11:25:28;102641.28;;;9.39;71.67
59951;BME280;45812;53.540;9.774;2023-02-15T11:27:55;102636.19;;;9.36;72.52
59951;BME280;45812;53.540;9.774;2023-02-15T11:30:23;102640.34;;;9.64;72.04
59951;BME280;45812;53.540;9.774;2023-02-15T11:32:55;102636.34;;;10.30;70.16
59951;BME280;45812;53.540;9.774;2023-02-15T11:35:36;102623.72;;;11.57;64.10
59951;BME280;45812;53.540;9.774;2023-02-15T11:38:12;102621.94;;;10.90;64.69
59951;BME280;45812;53.540;9.774;2023-02-15T11:40:47;102625.91;;;10.03;69.07
59951;BME280;45812;53.540;9.774;2023-02-15T11:43:18;102624.63;;;10.33;69.02
59951;BME280;45812;53.540;9.774;2023-02-15T11:45:46;102611.50;;;11.43;67.18
59951;BME280;45812;53.540;9.774;2023-02-15T11:48:13;102610.69;;;12.90;57.89
59951;BME280;45812;53.540;9.774;2023-02-15T11:50:41;102608.19;;;12.98;58.07
59951;BME280;45812;53.540;9.774;2023-02-15T11:53:12;102605.19;;;13.91;54.43
59951;BME280;45812;53.540;9.774;2023-02-15T11:55:38;102596.81;;;14.62;51.55
59951;BME280;45812;53.540;9.774;2023-02-15T12:01:00;102579.19;;;14.69;50.17
59951;BME280;45812;53.540;9.774;2023-02-15T12:03:46;102585.13;;;16.34;46.85
59951;BME280;45812;53.540;9.774;2023-02-15T12:06:19;102576.03;;;18.45;42.76
59951;BME280;45812;53.540;9.774;2023-02-15T12:08:53;102565.22;;;21.20;37.59
59951;BME280;45812;53.540;9.774;2023-02-15T12:11:29;102564.81;;;21.95;35.97
59951;BME280;45812;53.540;9.774;2023-02-15T12:14:03;102557.25;;;21.90;34.35
59951;BME280;45812;53.540;9.774;2023-02-15T12:16:34;102548.13;;;22.47;33.56
59951;BME280;45812;53.540;9.774;2023-02-15T12:19:05;102541.97;;;23.95;31.07
59951;BME280;45812;53.540;9.774;2023-02-15T12:21:33;102540.50;;;25.10;29.39
59951;BME280;45812;53.540;9.774;2023-02-15T12:24:09;102535.78;;;25.93;28.13
59951;BME280;45812;53.540;9.774;2023-02-15T12:26:41;102535.44;;;27.25;26.58
59951;BME280;45812;53.540;9.774;2023-02-15T12:29:16;102531.25;;;28.29;24.18
59951;BME280;45812;53.540;9.774;2023-02-15T12:31:45;102528.25;;;28.42;24.79
59951;BME280;45812;53.540;9.774;2023-02-15T12:34:32;102530.56;;;29.25;23.59
59951;BME280;45812;53.540;9.774;2023-02-15T12:37:09;102517.56;;;29.49;22.90
59951;BME280;45812;53.540;9.774;2023-02-15T12:39:36;102517.03;;;29.07;22.76
59951;BME280;45812;53.540;9.774;2023-02-15T12:42:14;102506.38;;;28.82;23.58
59951;BME280;45812;53.540;9.774;2023-02-15T12:44:56;102511.47;;;28.39;23.52
59951;BME280;45812;53.540;9.774;2023-02-15T12:47:22;102505.16;;;29.02;23.27
59951;BME280;45812;53.540;9.774;2023-02-15T12:50:14;102508.59;;;29.71;22.59
59951;BME280;45812;53.540;9.774;2023-02-15T12:52:44;102504.47;;;30.62;21.62
59951;BME280;45812;53.540;9.774;2023-02-15T12:55:23;102498.97;;;31.33;20.59
59951;BME280;45812;53.540;9.774;2023-02-15T12:57:49;102495.03;;;31.88;19.65
59951;BME280;45812;53.540;9.774;2023-02-15T13:00:29;102497.91;;;31.71;20.25
59951;BME280;45812;53.540;9.774;2023-02-15T13:02:57;102494.19;;;31.23;20.26
59951;BME280;45812;53.540;9.774;2023-02-15T13:05:31;102495.81;;;29.76;21.67
59951;BME280;45812;53.540;9.774;2023-02-15T13:08:00;102483.72;;;29.15;22.10
59951;BME280;45812;53.540;9.774;2023-02-15T13:10:33;102484.19;;;28.95;22.54
59951;BME280;45812;53.540;9.774;2023-02-15T13:13:00;102475.16;;;29.12;22.20
59951;BME280;45812;53.540;9.774;2023-02-15T13:15:35;102473.38;;;28.89;22.53
59951;BME280;45812;53.540;9.774;2023-02-15T13:18:02;102470.59;;;29.17;22.40
59951;BME280;45812;53.540;9.774;2023-02-15T13:20:29;102470.03;;;29.32;21.90
59951;BME280;45812;53.540;9.774;2023-02-15T13:23:08;102475.94;;;29.24;22.57
59951;BME280;45812;53.540;9.774;2023-02-15T13:25:44;102475.31;;;29.50;22.04
59951;BME280;45812;53.540;9.774;2023-02-15T13:28:14;102479.41;;;29.03;22.65
59951;BME280;45812;53.540;9.774;2023-02-15T13:30:46;102464.50;;;28.99;22.62
59951;BME280;45812;53.540;9.774;2023-02-15T13:33:19;102455.88;;;29.07;22.72
59951;BME280;45812;53.540;9.774;2023-02-15T13:35:54;102462.72;;;28.64;22.56
59951;BME280;45812;53.540;9.774;2023-02-15T13:38:45;102453.94;;;28.50;22.82
59951;BME280;45812;53.540;9.774;2023-02-15T13:41:17;102459.91;;;28.47;23.25
59951;BME280;45812;53.540;9.774;2023-02-15T13:44:08;102455.84;;;27.56;23.85
59951;BME280;45812;53.540;9.774;2023-02-15T13:46:45;102450.63;;;26.28;25.54
59951;BME280;45812;53.540;9.774;2023-02-15T13:52:24;102450.03;;;24.43;28.10
59951;BME280;45812;53.540;9.774;2023-02-15T14:01:08;102430.16;;;26.55;25.80
59951;BME280;45812;53.540;9.774;2023-02-15T14:06:28;102429.13;;;27.82;24.33
59951;BME280;45812;53.540;9.774;2023-02-15T14:09:23;102430.50;;;28.19;23.86
59951;BME280;45812;53.540;9.774;2023-02-15T14:12:15;102423.34;;;28.18;23.80
59951;BME280;45812;53.540;9.774;2023-02-15T14:20:59;102425.63;;;28.21;23.90